Time;durP1;ratioP1;P1;durP2;ratioP2;P2;SDS_P1;SDS_P2;PMS_P1;PMS_P2;Temp;Humidity;BMP_temperature;BMP_pressure;BME280_temperature;BME280_humidity;BME280_pressure;Samples;Min_cycle;Max_cycle;Signal;HPM_P1;HPM_P2
2024/03/11 00:00:00;;;;;;;12.65;1.73;;;;;;;;;;5075274;28;20079;-74
2024/03/11 00:02:27;;;;;;;8.40;1.60;;;;;;;;;;5074610;28;20041;-75
2024/03/11 00:04:54;;;;;;;7.50;1.70;;;;;;;;;;5075046;28;20501;-75
2024/03/11 00:07:21;;;;;;;8.73;1.88;;;;;;;;;;5074422;28;20717;-75
2024/03/11 00:09:48;;;;;;;7.88;1.45;;;;;;;;;;5059088;28;20041;-74
2024/03/11 00:12:17;;;;;;;9.05;1.50;;;;;;;;;;5055752;28;20439;-75
2024/03/11 00:14:47;;;;;;;6.97;1.70;;;;;;;;;;5056238;28;20380;-75
2024/03/11 00:17:14;;;;;;;7.95;1.40;;;;;;;;;;5055963;28;20548;-75
2024/03/11 00:19:41;;;;;;;9.20;1.75;;;;;;;;;;5056050;28;20041;-74
2024/03/11 00:22:08;;;;;;;4.00;1.40;;;;;;;;;;5055706;28;20091;-75
2024/03/11 00:24:35;;;;;;;7.80;1.75;;;;;;;;;;5056250;28;20052;-75
2024/03/11 00:27:07;;;;;;;6.35;1.50;;;;;;;;;;5075962;28;20044;-74
2024/03/11 00:29:37;;;;;;;12.45;2.03;;;;;;;;;;5075693;28;20044;-74
2024/03/11 00:32:07;;;;;;;7.63;1.45;;;;;;;;;;5075930;28;20059;-74
2024/03/11 00:34:35;;;;;;;8.75;1.85;;;;;;;;;;5075740;28;20422;-74
2024/03/11 00:37:02;;;;;;;8.60;2.40;;;;;;;;;;5075770;28;20040;-74
2024/03/11 00:39:29;;;;;;;9.05;2.08;;;;;;;;;;5075633;28;20036;-74
2024/03/11 00:41:56;;;;;;;12.48;2.97;;;;;;;;;;5075770;28;20040;-74
2024/03/11 00:44:23;;;;;;;10.80;2.45;;;;;;;;;;5075329;28;20146;-75
2024/03/11 00:46:50;;;;;;;7.70;2.47;;;;;;;;;;5075735;28;20395;-74
2024/03/11 00:49:19;;;;;;;14.73;2.42;;;;;;;;;;5075045;28;20044;-75
2024/03/11 00:51:46;;;;;;;4.50;2.30;;;;;;;;;;5057972;28;20041;-74
2024/03/11 00:54:13;;;;;;;10.10;2.88;;;;;;;;;;5075114;28;20059;-75
2024/03/11 00:56:40;;;;;;;15.43;3.60;;;;;;;;;;5075529;28;20379;-74
2024/03/11 00:59:07;;;;;;;11.27;3.03;;;;;;;;;;5075086;28;20052;-75
2024/03/11 01:01:34;;;;;;;10.23;2.88;;;;;;;;;;5075456;28;20425;-75
2024/03/11 01:04:00;;;;;;;10.25;3.20;;;;;;;;;;5075313;28;20556;-75
2024/03/11 01:06:27;;;;;;;12.18;3.00;;;;;;;;;;5074134;28;20040;-75
2024/03/11 01:08:57;;;;;;;13.05;2.75;;;;;;;;;;5075439;28;20406;-75
2024/03/11 01:11:23;;;;;;;10.82;2.90;;;;;;;;;;5074726;28;20055;-75
2024/03/11 01:13:50;;;;;;;16.58;3.10;;;;;;;;;;5075085;28;20406;-75
2024/03/11 01:16:17;;;;;;;12.52;3.58;;;;;;;;;;5074526;28;20036;-74
2024/03/11 01:18:45;;;;;;;16.30;3.00;;;;;;;;;;5075001;28;20036;-74
2024/03/11 01:21:16;;;;;;;13.87;2.83;;;;;;;;;;5074796;28;20352;-75
2024/03/11 01:23:45;;;;;;;7.30;3.05;;;;;;;;;;5074883;28;20060;-75
2024/03/11 01:26:12;;;;;;;10.02;2.33;;;;;;;;;;5074600;28;20044;-75
2024/03/11 01:28:39;;;;;;;13.48;2.75;;;;;;;;;;5056269;28;20093;-74
2024/03/11 01:31:06;;;;;;;9.38;2.33;;;;;;;;;;5073351;28;20036;-75
2024/03/11 01:33:33;;;;;;;11.32;2.28;;;;;;;;;;5073413;28;20048;-75
2024/03/11 01:36:01;;;;;;;10.52;2.45;;;;;;;;;;5073428;28;20033;-75
2024/03/11 01:38:28;;;;;;;8.70;2.30;;;;;;;;;;5072906;28;20052;-75
2024/03/11 01:40:56;;;;;;;11.45;2.83;;;;;;;;;;5073124;28;20040;-75
2024/03/11 01:43:24;;;;;;;10.57;3.15;;;;;;;;;;5072974;28;20047;-75
2024/03/11 01:45:53;;;;;;;10.20;2.25;;;;;;;;;;5073195;28;20045;-74
2024/03/11 01:48:20;;;;;;;10.68;2.40;;;;;;;;;;5055197;28;20037;-75
2024/03/11 01:50:47;;;;;;;9.48;2.47;;;;;;;;;;5073117;28;20106;-75
2024/03/11 01:53:15;;;;;;;8.73;2.70;;;;;;;;;;5072922;28;20055;-75
2024/03/11 01:55:46;;;;;;;9.65;2.50;;;;;;;;;;5055413;28;20142;-75
2024/03/11 01:58:13;;;;;;;8.88;2.50;;;;;;;;;;5072657;28;20379;-75
2024/03/11 02:00:41;;;;;;;9.70;2.15;;;;;;;;;;5072730;28;20506;-75
2024/03/11 02:03:08;;;;;;;9.57;2.22;;;;;;;;;;5073115;28;20443;-75
2024/03/11 02:05:40;;;;;;;8.18;2.35;;;;;;;;;;5071514;28;20047;-74
2024/03/11 02:08:08;;;;;;;11.07;2.38;;;;;;;;;;5073845;28;20488;-75
2024/03/11 02:10:36;;;;;;;10.95;2.13;;;;;;;;;;5074163;28;20102;-75
2024/03/11 02:13:04;;;;;;;8.05;2.63;;;;;;;;;;5073774;28;20467;-75
2024/03/11 02:15:31;;;;;;;12.00;2.47;;;;;;;;;;5073742;28;20040;-75
2024/03/11 02:17:58;;;;;;;11.02;2.17;;;;;;;;;;5072884;28;20159;-74
2024/03/11 02:20:26;;;;;;;7.78;2.28;;;;;;;;;;5073071;28;20040;-75
2024/03/11 02:22:56;;;;;;;8.32;2.55;;;;;;;;;;5074544;28;20082;-74
2024/03/11 02:25:30;;;;;;;;;;;;;;;;;;5074534;28;20041;-75
2024/03/11 02:27:59;;;;;;;16.20;2.15;;;;;;;;;;5056560;28;19920;-75
2024/03/11 02:30:27;;;;;;;6.88;1.70;;;;;;;;;;5055353;28;20089;-75
2024/03/11 02:32:54;;;;;;;11.18;2.78;;;;;;;;;;5072231;28;20032;-75
2024/03/11 02:35:22;;;;;;;10.07;2.10;;;;;;;;;;5071553;28;20110;-75
2024/03/11 02:37:48;;;;;;;13.32;2.03;;;;;;;;;;5071940;28;20563;-75
2024/03/11 02:40:19;;;;;;;13.45;2.08;;;;;;;;;;5071458;28;20033;-75
2024/03/11 02:42:46;;;;;;;10.27;2.35;;;;;;;;;;5071835;28;20047;-75
2024/03/11 02:45:14;;;;;;;7.65;1.65;;;;;;;;;;5071421;28;20044;-75
2024/03/11 02:47:41;;;;;;;7.95;1.73;;;;;;;;;;5071771;28;20051;-75
2024/03/11 02:50:10;;;;;;;7.93;2.58;;;;;;;;;;5071646;28;20136;-75
2024/03/11 02:52:37;;;;;;;8.63;1.50;;;;;;;;;;5071801;28;20052;-75
2024/03/11 02:55:05;;;;;;;11.32;1.40;;;;;;;;;;5070557;28;20505;-75
2024/03/11 02:57:32;;;;;;;;;;;;;;;;;;5053376;28;20045;-74
2024/03/11 02:59:59;;;;;;;4.10;1.05;;;;;;;;;;5053433;28;19920;-74
2024/03/11 03:02:27;;;;;;;4.88;1.10;;;;;;;;;;5052757;28;20394;-75
2024/03/11 03:04:55;;;;;;;7.07;1.17;;;;;;;;;;5053052;28;20036;-75
2024/03/11 03:07:25;;;;;;;;;;;;;;;;;;5052934;28;20056;-76
2024/03/11 03:09:52;;;;;;;6.38;1.52;;;;;;;;;;5053232;28;19982;-74
2024/03/11 03:12:20;;;;;;;4.43;1.02;;;;;;;;;;5052502;28;20487;-75
2024/03/11 03:14:47;;;;;;;5.93;0.95;;;;;;;;;;5052970;28;20045;-75
2024/03/11 03:17:14;;;;;;;8.18;1.27;;;;;;;;;;5052475;28;20057;-75
2024/03/11 03:19:41;;;;;;;6.38;1.13;;;;;;;;;;5052827;28;20056;-75
2024/03/11 03:22:08;;;;;;;4.95;1.20;;;;;;;;;;5052866;28;20167;-75
2024/03/11 03:24:35;;;;;;;4.10;1.45;;;;;;;;;;5053367;28;20045;-75
2024/03/11 03:27:02;;;;;;;7.00;1.20;;;;;;;;;;5055263;28;20131;-75
2024/03/11 03:29:30;;;;;;;4.82;1.35;;;;;;;;;;5072307;28;20045;-75
2024/03/11 03:31:57;;;;;;;;;;;;;;;;;;5073685;28;20045;-75
2024/03/11 03:34:24;;;;;;;4.38;1.00;;;;;;;;;;5072950;28;19926;-75
2024/03/11 03:36:51;;;;;;;5.03;1.30;;;;;;;;;;5072586;28;20041;-75
2024/03/11 03:39:18;;;;;;;6.10;1.27;;;;;;;;;;5055170;28;20055;-76
2024/03/11 03:41:45;;;;;;;4.53;1.50;;;;;;;;;;5054882;28;20467;-75
2024/03/11 03:44:12;;;;;;;5.03;1.20;;;;;;;;;;5070945;28;20064;-75
2024/03/11 03:46:39;;;;;;;5.75;1.70;;;;;;;;;;5071347;28;20044;-75
2024/03/11 03:49:07;;;;;;;5.43;1.25;;;;;;;;;;5053316;28;20094;-75
2024/03/11 03:51:34;;;;;;;3.10;1.35;;;;;;;;;;5071050;28;20052;-75
2024/03/11 03:54:01;;;;;;;3.78;1.38;;;;;;;;;;5071637;28;20043;-75
2024/03/11 03:56:29;;;;;;;6.82;1.48;;;;;;;;;;5070583;28;20589;-74
2024/03/11 03:58:56;;;;;;;4.40;1.25;;;;;;;;;;5071445;28;20103;-75
2024/03/11 04:01:23;;;;;;;5.38;1.38;;;;;;;;;;5071045;28;20284;-74
2024/03/11 04:03:50;;;;;;;6.32;1.30;;;;;;;;;;5071251;28;20082;-75
2024/03/11 04:06:17;;;;;;;4.43;1.40;;;;;;;;;;5070649;28;20360;-75
2024/03/11 04:08:44;;;;;;;7.68;1.42;;;;;;;;;;5071153;28;20036;-75
2024/03/11 04:11:11;;;;;;;7.75;2.30;;;;;;;;;;5070724;28;20044;-75
2024/03/11 04:13:38;;;;;;;4.60;1.70;;;;;;;;;;5070987;28;20048;-75
2024/03/11 04:16:07;;;;;;;4.60;1.60;;;;;;;;;;5070562;28;20033;-76
2024/03/11 04:18:34;;;;;;;4.85;2.05;;;;;;;;;;5070732;28;20047;-75
2024/03/11 04:21:05;;;;;;;5.45;1.70;;;;;;;;;;5053045;28;20050;-75
2024/03/11 04:23:32;;;;;;;6.35;1.75;;;;;;;;;;5070429;28;20119;-78
2024/03/11 04:26:01;;;;;;;6.07;1.90;;;;;;;;;;5070817;28;20055;-75
2024/03/11 04:28:28;;;;;;;9.68;2.03;;;;;;;;;;5070158;28;20132;-75
2024/03/11 04:30:56;;;;;;;6.20;1.70;;;;;;;;;;5070728;28;20078;-75
2024/03/11 04:33:22;;;;;;;9.10;2.05;;;;;;;;;;5070332;28;20386;-75
2024/03/11 04:35:50;;;;;;;7.35;2.33;;;;;;;;;;5070500;28;20090;-75
2024/03/11 04:38:17;;;;;;;8.45;2.47;;;;;;;;;;5054191;28;20048;-75
2024/03/11 04:40:45;;;;;;;3.53;2.10;;;;;;;;;;5063922;28;20048;-75
2024/03/11 04:43:11;;;;;;;5.97;1.55;;;;;;;;;;5074935;28;20041;-75
2024/03/11 04:45:39;;;;;;;6.93;2.13;;;;;;;;;;5075538;28;20040;-75
2024/03/11 04:48:09;;;;;;;6.32;1.63;;;;;;;;;;5075514;28;20036;-75
2024/03/11 04:50:38;;;;;;;9.55;2.10;;;;;;;;;;5075756;28;20049;-75
2024/03/11 04:53:09;;;;;;;8.55;2.17;;;;;;;;;;5075147;28;20563;-75
2024/03/11 04:55:36;;;;;;;7.38;2.00;;;;;;;;;;5075594;28;20052;-75
2024/03/11 04:58:04;;;;;;;6.90;1.98;;;;;;;;;;5074348;28;20040;-75
2024/03/11 05:00:31;;;;;;;9.07;2.08;;;;;;;;;;5055853;28;20474;-76
2024/03/11 05:02:59;;;;;;;6.47;1.90;;;;;;;;;;5074085;28;20085;-75
2024/03/11 05:05:27;;;;;;;7.57;2.25;;;;;;;;;;5073324;28;20463;-75
2024/03/11 05:07:54;;;;;;;8.18;2.10;;;;;;;;;;5075463;28;20037;-75
2024/03/11 05:10:21;;;;;;;7.65;2.65;;;;;;;;;;5074823;28;20064;-75
2024/03/11 05:12:49;;;;;;;8.88;3.03;;;;;;;;;;5075250;28;20071;-75
2024/03/11 05:15:19;;;;;;;9.20;3.10;;;;;;;;;;5074931;28;20056;-75
2024/03/11 05:17:46;;;;;;;7.57;3.28;;;;;;;;;;5075226;28;20307;-75
2024/03/11 05:20:18;;;;;;;8.10;3.03;;;;;;;;;;5074434;28;20356;-75
2024/03/11 05:22:47;;;;;;;12.02;4.15;;;;;;;;;;5075134;28;20041;-75
2024/03/11 05:25:14;;;;;;;8.43;3.33;;;;;;;;;;5074339;28;20041;-75
2024/03/11 05:27:46;;;;;;;9.50;3.42;;;;;;;;;;5075103;28;20127;-75
2024/03/11 05:30:15;;;;;;;12.32;3.67;;;;;;;;;;5074447;28;20123;-75
2024/03/11 05:32:41;;;;;;;10.13;3.90;;;;;;;;;;5075069;28;20036;-75
2024/03/11 05:35:09;;;;;;;8.95;4.45;;;;;;;;;;5073797;28;20501;-78
2024/03/11 05:37:36;;;;;;;14.95;5.20;;;;;;;;;;5074590;28;20060;-76
2024/03/11 05:40:05;;;;;;;12.00;4.20;;;;;;;;;;5074610;28;20041;-79
2024/03/11 05:42:33;;;;;;;10.32;4.55;;;;;;;;;;5040069;28;20124;-75
2024/03/11 05:45:02;;;;;;;14.57;4.45;;;;;;;;;;5074192;28;20052;-75
2024/03/11 05:47:30;;;;;;;9.20;3.95;;;;;;;;;;5074031;28;20044;-76
2024/03/11 05:49:57;;;;;;;11.23;3.80;;;;;;;;;;5074279;28;20043;-75
2024/03/11 05:52:26;;;;;;;11.90;4.50;;;;;;;;;;5073866;28;20056;-75
2024/03/11 05:54:53;;;;;;;9.70;4.38;;;;;;;;;;5074025;28;20363;-75
2024/03/11 05:57:29;;;;;;;8.90;4.30;;;;;;;;;;5056379;28;20052;-75
2024/03/11 05:59:57;;;;;;;6.45;4.03;;;;;;;;;;5074292;28;20041;-75
2024/03/11 06:02:24;;;;;;;8.90;4.40;;;;;;;;;;5073724;28;20052;-75
2024/03/11 06:04:51;;;;;;;14.15;4.15;;;;;;;;;;5073900;28;20044;-75
2024/03/11 06:07:23;;;;;;;10.27;4.63;;;;;;;;;;5073646;28;20100;-75
2024/03/11 06:09:51;;;;;;;12.85;4.15;;;;;;;;;;5074267;28;20051;-75
2024/03/11 06:12:19;;;;;;;8.52;4.45;;;;;;;;;;5073510;28;20040;-75
2024/03/11 06:14:50;;;;;;;14.10;4.28;;;;;;;;;;5073966;28;20052;-75
2024/03/11 06:17:17;;;;;;;10.85;4.00;;;;;;;;;;5073676;28;20116;-75
2024/03/11 06:19:44;;;;;;;10.88;4.15;;;;;;;;;;5073752;28;20040;-75
2024/03/11 06:22:15;;;;;;;10.48;4.18;;;;;;;;;;5073463;28;20033;-75
2024/03/11 06:24:42;;;;;;;12.35;4.50;;;;;;;;;;5073927;28;20127;-75
2024/03/11 06:27:09;;;;;;;9.80;4.38;;;;;;;;;;5073192;28;20036;-75
2024/03/11 06:29:35;;;;;;;18.33;5.45;;;;;;;;;;5073844;28;20040;-75
2024/03/11 06:32:05;;;;;;;7.93;4.22;;;;;;;;;;5073605;28;20043;-74
2024/03/11 06:34:34;;;;;;;13.05;4.53;;;;;;;;;;5073007;28;20056;-75
2024/03/11 06:37:02;;;;;;;10.80;5.35;;;;;;;;;;5073462;28;20036;-75
2024/03/11 06:39:31;;;;;;;9.30;4.45;;;;;;;;;;5073079;28;20072;-75
2024/03/11 06:42:00;;;;;;;14.18;4.80;;;;;;;;;;5073668;28;20439;-75
2024/03/11 06:44:27;;;;;;;8.38;5.18;;;;;;;;;;5072915;28;20052;-75
2024/03/11 06:47:09;;;;;;;11.85;5.35;;;;;;;;;;5073410;28;20051;-75
2024/03/11 06:49:36;;;;;;;13.23;5.22;;;;;;;;;;5073252;28;20044;-75
2024/03/11 06:52:05;;;;;;;12.70;4.87;;;;;;;;;;5073146;28;20416;-75
2024/03/11 06:54:33;;;;;;;11.02;5.13;;;;;;;;;;5072991;28;20041;-75
2024/03/11 06:57:00;;;;;;;13.88;5.20;;;;;;;;;;5073636;28;20099;-77
2024/03/11 06:59:28;;;;;;;11.60;5.57;;;;;;;;;;5055002;28;20048;-75
2024/03/11 07:01:56;;;;;;;9.48;4.95;;;;;;;;;;5073265;28;20045;-75
2024/03/11 07:04:23;;;;;;;10.60;5.40;;;;;;;;;;5071999;28;20044;-74
2024/03/11 07:06:50;;;;;;;10.88;5.75;;;;;;;;;;5072748;28;20120;-75
2024/03/11 07:09:18;;;;;;;14.45;6.65;;;;;;;;;;5072775;28;20067;-75
2024/03/11 07:11:45;;;;;;;12.38;4.45;;;;;;;;;;5073138;28;20493;-74
2024/03/11 07:14:13;;;;;;;13.18;4.70;;;;;;;;;;5072565;28;20044;-75
2024/03/11 07:16:42;;;;;;;;;;;;;;;;;;5073556;28;20391;-75
2024/03/11 07:19:09;;;;;;;6.85;3.72;;;;;;;;;;5072246;28;20274;-76
2024/03/11 07:21:37;;;;;;;12.25;3.80;;;;;;;;;;5072970;28;20054;-76
2024/03/11 07:24:05;;;;;;;7.93;3.20;;;;;;;;;;5072910;28;20109;-75
2024/03/11 07:26:32;;;;;;;6.80;3.30;;;;;;;;;;5072345;28;20470;-75
2024/03/11 07:28:59;;;;;;;8.18;3.22;;;;;;;;;;5069121;28;20041;-75
2024/03/11 07:31:25;;;;;;;7.63;3.00;;;;;;;;;;5068003;28;20520;-75
2024/03/11 07:33:52;;;;;;;7.05;2.95;;;;;;;;;;5046313;28;20056;-75
2024/03/11 07:36:19;;;;;;;9.70;3.22;;;;;;;;;;5037207;28;20384;-75
2024/03/11 07:38:49;;;;;;;12.63;2.90;;;;;;;;;;5071262;28;20028;-76
2024/03/11 07:41:16;;;;;;;6.38;2.90;;;;;;;;;;5066497;28;20048;-75
2024/03/11 07:43:42;;;;;;;8.13;2.58;;;;;;;;;;5071155;28;20400;-76
2024/03/11 07:46:11;;;;;;;7.93;2.55;;;;;;;;;;5070616;28;20152;-75
2024/03/11 07:48:41;;;;;;;4.78;2.25;;;;;;;;;;5066832;28;20033;-75
2024/03/11 07:51:08;;;;;;;6.68;1.80;;;;;;;;;;5070445;28;20495;-75
2024/03/11 07:53:36;;;;;;;4.40;1.80;;;;;;;;;;5071333;28;20364;-76
2024/03/11 07:56:04;;;;;;;5.73;1.73;;;;;;;;;;5070957;28;20037;-75
2024/03/11 07:58:36;;;;;;;5.03;1.45;;;;;;;;;;5070635;28;20474;-75
2024/03/11 08:01:03;;;;;;;4.32;1.40;;;;;;;;;;5070724;28;20036;-75
2024/03/11 08:03:30;;;;;;;7.70;1.63;;;;;;;;;;5052209;28;20505;-75
2024/03/11 08:05:58;;;;;;;4.95;1.20;;;;;;;;;;5062840;28;20063;-75
2024/03/11 08:08:25;;;;;;;5.57;1.05;;;;;;;;;;5052392;28;20124;-75
2024/03/11 08:10:53;;;;;;;5.88;1.25;;;;;;;;;;5070971;28;20115;-75
2024/03/11 08:13:20;;;;;;;5.35;1.00;;;;;;;;;;5070506;28;20075;-76
2024/03/11 08:15:48;;;;;;;7.82;1.25;;;;;;;;;;5061449;28;20029;-75
2024/03/11 08:18:16;;;;;;;4.95;1.10;;;;;;;;;;5044603;28;20049;-75
2024/03/11 08:20:43;;;;;;;5.68;1.05;;;;;;;;;;5064322;28;20045;-75
2024/03/11 08:23:11;;;;;;;3.78;1.05;;;;;;;;;;5059063;28;20041;-75
2024/03/11 08:25:44;;;;;;;8.02;1.48;;;;;;;;;;5039836;28;20121;-75
2024/03/11 08:28:14;;;;;;;5.15;1.45;;;;;;;;;;5058342;28;20114;-75
2024/03/11 08:30:43;;;;;;;7.28;1.10;;;;;;;;;;5074429;28;20132;-75
2024/03/11 08:33:12;;;;;;;5.25;1.20;;;;;;;;;;5074441;28;20060;-75
2024/03/11 08:35:40;;;;;;;7.88;1.30;;;;;;;;;;5065313;28;20037;-75
2024/03/11 08:38:07;;;;;;;5.47;1.10;;;;;;;;;;5066324;28;20060;-75
2024/03/11 08:40:35;;;;;;;6.97;1.45;;;;;;;;;;5063426;28;20140;-75
2024/03/11 08:43:02;;;;;;;6.68;1.20;;;;;;;;;;5062252;28;20045;-75
2024/03/11 08:45:32;;;;;;;5.40;0.98;;;;;;;;;;5064111;28;20048;-74
2024/03/11 08:47:59;;;;;;;4.38;1.15;;;;;;;;;;5064327;28;20045;-75
2024/03/11 08:50:26;;;;;;;6.20;1.20;;;;;;;;;;5056650;28;20045;-75
2024/03/11 08:52:53;;;;;;;5.60;1.20;;;;;;;;;;5072957;28;20032;-75
2024/03/11 08:55:20;;;;;;;4.88;1.30;;;;;;;;;;5056389;28;20040;-75
2024/03/11 08:57:49;;;;;;;7.10;1.67;;;;;;;;;;5074385;28;20043;-75
2024/03/11 09:00:17;;;;;;;5.07;1.55;;;;;;;;;;5073787;28;20072;-75
2024/03/11 09:02:44;;;;;;;4.72;1.23;;;;;;;;;;5075405;28;20062;-75
2024/03/11 09:05:12;;;;;;;5.03;1.23;;;;;;;;;;5074834;28;20131;-74
2024/03/11 09:07:40;;;;;;;5.35;1.08;;;;;;;;;;5073221;28;20047;-74
2024/03/11 09:10:09;;;;;;;11.73;1.30;;;;;;;;;;5072954;28;20037;-75
2024/03/11 09:12:40;;;;;;;4.07;1.10;;;;;;;;;;5073438;28;20044;-75
2024/03/11 09:15:20;;;;;;;5.82;1.20;;;;;;;;;;5072907;28;20040;-75
2024/03/11 09:17:51;;;;;;;4.38;1.35;;;;;;;;;;5073654;28;20127;-75
2024/03/11 09:20:21;;;;;;;4.20;1.10;;;;;;;;;;5073069;28;20036;-75
2024/03/11 09:22:50;;;;;;;3.50;1.08;;;;;;;;;;5074977;28;20052;-74
2024/03/11 09:25:22;;;;;;;6.03;1.30;;;;;;;;;;5074680;28;20040;-75
2024/03/11 09:28:03;;;;;;;3.47;1.38;;;;;;;;;;5074647;28;20050;-75
2024/03/11 09:30:35;;;;;;;5.55;2.05;;;;;;;;;;5074790;28;20040;-75
2024/03/11 09:33:04;;;;;;;6.63;1.60;;;;;;;;;;5074483;28;20041;-74
2024/03/11 09:35:32;;;;;;;7.13;2.20;;;;;;;;;;5074835;28;20044;-75
2024/03/11 09:38:00;;;;;;;5.60;1.88;;;;;;;;;;5074840;28;20048;-75
2024/03/11 09:40:27;;;;;;;6.22;2.00;;;;;;;;;;5074161;28;20123;-75
2024/03/11 09:42:58;;;;;;;9.43;2.03;;;;;;;;;;5074934;28;20550;-75
2024/03/11 09:45:28;;;;;;;3.83;2.00;;;;;;;;;;5056663;28;20119;-75
2024/03/11 09:48:01;;;;;;;5.80;2.38;;;;;;;;;;5074890;28;20040;-75
2024/03/11 09:50:30;;;;;;;6.32;2.33;;;;;;;;;;5074285;28;20044;-75
2024/03/11 09:53:18;;;;;;;8.10;2.38;;;;;;;;;;5074669;28;20068;-75
2024/03/11 09:55:46;;;;;;;7.07;2.55;;;;;;;;;;5056734;28;20123;-74
2024/03/11 09:58:18;;;;;;;7.95;2.85;;;;;;;;;;5073918;28;20040;-75
2024/03/11 10:00:55;;;;;;;10.82;2.60;;;;;;;;;;5074341;28;20037;-75
2024/03/11 10:03:24;;;;;;;10.85;2.55;;;;;;;;;;5074015;28;20120;-75
2024/03/11 10:06:04;;;;;;;9.38;3.15;;;;;;;;;;5074221;28;20086;-75
2024/03/11 10:08:32;;;;;;;8.60;2.80;;;;;;;;;;5074154;28;20487;-75
2024/03/11 10:11:11;;;;;;;8.25;2.92;;;;;;;;;;5073961;28;20501;-75
2024/03/11 10:13:39;;;;;;;9.52;3.63;;;;;;;;;;5073928;28;20123;-74
2024/03/11 10:16:17;;;;;;;8.50;3.30;;;;;;;;;;5074021;28;20036;-75
2024/03/11 10:18:54;;;;;;;11.00;3.33;;;;;;;;;;5074059;28;20041;-75
2024/03/11 10:21:21;;;;;;;9.40;3.13;;;;;;;;;;5073796;28;20037;-75
2024/03/11 10:23:50;;;;;;;11.90;3.75;;;;;;;;;;5074049;28;20052;-74
2024/03/11 10:26:17;;;;;;;8.70;4.00;;;;;;;;;;5073393;28;20051;-75
2024/03/11 10:28:49;;;;;;;10.52;3.72;;;;;;;;;;5073963;28;20105;-74
2024/03/11 10:31:19;;;;;;;10.93;4.63;;;;;;;;;;5073372;28;20387;-74
2024/03/11 10:33:46;;;;;;;10.25;4.22;;;;;;;;;;5073216;28;20127;-75
2024/03/11 10:36:15;;;;;;;10.65;4.38;;;;;;;;;;5073105;28;20131;-75
2024/03/11 10:38:43;;;;;;;;;;;;;;;;;;5073805;28;20044;-75
2024/03/11 10:41:17;;;;;;;16.60;4.55;;;;;;;;;;5072720;28;19920;-75
2024/03/11 10:43:44;;;;;;;16.02;4.95;;;;;;;;;;5073550;28;20074;-74
2024/03/11 10:46:22;;;;;;;14.75;4.60;;;;;;;;;;5072683;28;20036;-74
2024/03/11 10:48:51;;;;;;;14.32;4.90;;;;;;;;;;5073688;28;20037;-75
2024/03/11 10:51:21;;;;;;;11.77;4.63;;;;;;;;;;5072889;28;20035;-74
2024/03/11 10:53:52;;;;;;;17.30;5.45;;;;;;;;;;5073373;28;20123;-75
2024/03/11 10:56:20;;;;;;;10.50;4.78;;;;;;;;;;5072702;28;20042;-74
2024/03/11 10:58:53;;;;;;;11.93;4.63;;;;;;;;;;5073449;28;20040;-75
2024/03/11 11:01:30;;;;;;;10.88;4.93;;;;;;;;;;5072929;28;20037;-74
2024/03/11 11:04:13;;;;;;;16.20;5.47;;;;;;;;;;5073451;28;20378;-74
2024/03/11 11:06:45;;;;;;;16.00;5.65;;;;;;;;;;5072678;28;20040;-74
2024/03/11 11:09:13;;;;;;;16.35;5.60;;;;;;;;;;5072745;28;20032;-75
2024/03/11 11:11:49;;;;;;;14.07;5.97;;;;;;;;;;5073229;28;20048;-75
2024/03/11 11:14:19;;;;;;;18.23;6.10;;;;;;;;;;5072605;28;20036;-74
2024/03/11 11:16:49;;;;;;;15.10;5.35;;;;;;;;;;5073105;28;20070;-74
2024/03/11 11:19:22;;;;;;;14.90;6.13;;;;;;;;;;5072618;28;20070;-75
2024/03/11 11:21:53;;;;;;;14.40;6.68;;;;;;;;;;5072930;28;20041;-74
2024/03/11 11:24:32;;;;;;;14.93;7.07;;;;;;;;;;5072601;28;20037;-74
2024/03/11 11:27:05;;;;;;;17.50;7.15;;;;;;;;;;5052740;28;20118;-74
2024/03/11 11:29:33;;;;;;;14.40;7.00;;;;;;;;;;5052770;28;20045;-75
2024/03/11 11:32:01;;;;;;;15.23;7.65;;;;;;;;;;5052851;28;20095;-74
2024/03/11 11:34:52;;;;;;;19.00;8.10;;;;;;;;;;5058071;28;20497;-75
2024/03/11 11:37:19;;;;;;;19.40;8.55;;;;;;;;;;5062794;28;20040;-75
2024/03/11 11:39:46;;;;;;;17.58;8.77;;;;;;;;;;5072680;28;20074;-75
2024/03/11 11:42:36;;;;;;;19.70;9.80;;;;;;;;;;5072338;28;20040;-75
2024/03/11 11:45:11;;;;;;;16.27;8.50;;;;;;;;;;5072844;28;20394;-74
2024/03/11 11:47:39;;;;;;;18.70;9.43;;;;;;;;;;5072502;28;20132;-75
2024/03/11 11:50:26;;;;;;;21.27;9.52;;;;;;;;;;5072410;28;20032;-74
2024/03/11 11:53:03;;;;;;;18.05;9.90;;;;;;;;;;5063160;28;20127;-75
2024/03/11 11:55:30;;;;;;;26.60;11.03;;;;;;;;;;5076355;28;20055;-74
2024/03/11 11:58:10;;;;;;;23.38;11.32;;;;;;;;;;5061000;28;20033;-74
2024/03/11 12:00:40;;;;;;;26.15;11.52;;;;;;;;;;5084841;28;20032;-74
2024/03/11 12:03:31;;;;;;;23.10;11.43;;;;;;;;;;5076163;28;20482;-74
2024/03/11 12:06:01;;;;;;;22.27;10.93;;;;;;;;;;5072852;28;20382;-75
2024/03/11 12:08:29;;;;;;;23.10;11.35;;;;;;;;;;5071497;28;20040;-74
2024/03/11 12:11:10;;;;;;;29.50;11.63;;;;;;;;;;5074851;28;20025;-74
2024/03/11 12:13:41;;;;;;;25.58;11.15;;;;;;;;;;5062216;28;20090;-74
2024/03/11 12:16:10;;;;;;;25.30;11.98;;;;;;;;;;5073989;28;20040;-75
2024/03/11 12:18:41;;;;;;;24.08;11.23;;;;;;;;;;5074691;28;20048;-74
2024/03/11 12:21:11;;;;;;;25.33;11.25;;;;;;;;;;5074282;28;20036;-75
2024/03/11 12:23:38;;;;;;;23.50;10.50;;;;;;;;;;5071513;28;20041;-75
2024/03/11 12:26:09;;;;;;;20.75;11.13;;;;;;;;;;5067106;28;20375;-74
2024/03/11 12:28:37;;;;;;;20.88;10.32;;;;;;;;;;5071323;28;20056;-75
2024/03/11 12:31:05;;;;;;;17.83;9.75;;;;;;;;;;5065276;28;20118;-73
2024/03/11 12:33:34;;;;;;;27.07;11.33;;;;;;;;;;5070254;28;20044;-74
2024/03/11 12:36:04;;;;;;;;;;;;;;;;;;5049317;28;20286;-75
2024/03/11 12:38:32;;;;;;;22.48;10.23;;;;;;;;;;5061446;28;19927;-74
2024/03/11 12:40:58;;;;;;;21.10;9.88;;;;;;;;;;5074360;28;20059;-75
2024/03/11 12:43:33;;;;;;;22.90;11.18;;;;;;;;;;5074020;28;20040;-74
2024/03/11 12:46:02;;;;;;;24.15;11.60;;;;;;;;;;5074219;28;20048;-73
2024/03/11 12:48:31;;;;;;;22.55;10.75;;;;;;;;;;5073720;28;20107;-74
2024/03/11 12:51:00;;;;;;;20.42;11.48;;;;;;;;;;5074199;28;20343;-75
2024/03/11 12:53:29;;;;;;;27.85;11.15;;;;;;;;;;5067477;28;20497;-75
2024/03/11 12:56:07;;;;;;;30.40;11.75;;;;;;;;;;5060254;28;20060;-75
2024/03/11 12:58:36;;;;;;;22.08;10.43;;;;;;;;;;5073930;28;20040;-75
2024/03/11 13:01:09;;;;;;;25.33;10.50;;;;;;;;;;5073603;28;20379;-73
2024/03/11 13:03:39;;;;;;;20.95;10.25;;;;;;;;;;5073066;28;20036;-74
2024/03/11 13:06:09;;;;;;;17.02;9.35;;;;;;;;;;5073611;28;20041;-75
2024/03/11 13:08:41;;;;;;;14.57;9.13;;;;;;;;;;5073433;28;20040;-74
2024/03/11 13:11:13;;;;;;;21.60;10.02;;;;;;;;;;5065553;28;20079;-75
2024/03/11 13:13:41;;;;;;;21.05;9.52;;;;;;;;;;5061313;28;20047;-74
2024/03/11 13:16:15;;;;;;;23.05;10.05;;;;;;;;;;5064071;28;20467;-75
2024/03/11 13:18:44;;;;;;;18.98;9.40;;;;;;;;;;5063668;28;20040;-74
2024/03/11 13:21:20;;;;;;;21.60;9.38;;;;;;;;;;5063716;28;20125;-75
2024/03/11 13:23:47;;;;;;;19.65;9.25;;;;;;;;;;5065582;28;20053;-75
2024/03/11 13:26:16;;;;;;;14.63;8.20;;;;;;;;;;5065185;28;20044;-74
2024/03/11 13:28:43;;;;;;;21.60;9.38;;;;;;;;;;5063934;28;20363;-75
2024/03/11 13:31:12;;;;;;;18.15;8.30;;;;;;;;;;5065052;28;20090;-74
2024/03/11 13:33:42;;;;;;;20.55;8.80;;;;;;;;;;5064873;28;20048;-76
2024/03/11 13:36:10;;;;;;;22.80;8.32;;;;;;;;;;5062688;28;20475;-75
2024/03/11 13:38:37;;;;;;;18.17;9.57;;;;;;;;;;5064869;28;20552;-75
2024/03/11 13:41:05;;;;;;;18.90;8.85;;;;;;;;;;5064503;28;20044;-76
2024/03/11 13:43:33;;;;;;;18.50;8.25;;;;;;;;;;5060794;28;20052;-75
2024/03/11 13:46:00;;;;;;;18.45;8.57;;;;;;;;;;5054765;28;20041;-74
2024/03/11 13:48:27;;;;;;;13.97;7.50;;;;;;;;;;5054149;28;20051;-75
2024/03/11 13:50:56;;;;;;;14.90;7.93;;;;;;;;;;5054754;28;20044;-75
2024/03/11 13:53:24;;;;;;;14.55;8.07;;;;;;;;;;5053998;28;20052;-75
2024/03/11 13:55:51;;;;;;;11.82;8.15;;;;;;;;;;5054345;28;20551;-75
2024/03/11 13:58:24;;;;;;;20.58;8.35;;;;;;;;;;5054045;28;20123;-75
2024/03/11 14:00:51;;;;;;;15.60;8.50;;;;;;;;;;5054442;28;20038;-75
2024/03/11 14:03:19;;;;;;;15.98;8.57;;;;;;;;;;5036197;28;20052;-75
2024/03/11 14:05:46;;;;;;;16.10;7.95;;;;;;;;;;5054454;28;20087;-75
2024/03/11 14:08:13;;;;;;;15.05;8.35;;;;;;;;;;5053707;28;20037;-75
2024/03/11 14:10:42;;;;;;;19.02;9.05;;;;;;;;;;5054241;28;20114;-75
2024/03/11 14:13:11;;;;;;;22.85;10.45;;;;;;;;;;5053513;28;20037;-75
2024/03/11 14:15:38;;;;;;;20.67;9.68;;;;;;;;;;5053091;28;20133;-75
2024/03/11 14:18:06;;;;;;;22.10;10.13;;;;;;;;;;5053410;28;20537;-75
2024/03/11 14:20:33;;;;;;;21.65;9.93;;;;;;;;;;5054122;28;20106;-75
2024/03/11 14:23:00;;;;;;;15.98;10.10;;;;;;;;;;5055586;28;20052;-75
2024/03/11 14:25:31;;;;;;;17.45;9.25;;;;;;;;;;5066677;28;20064;-76
2024/03/11 14:27:59;;;;;;;22.17;10.35;;;;;;;;;;5073902;28;20416;-75
2024/03/11 14:30:30;;;;;;;17.75;9.57;;;;;;;;;;5073597;28;20047;-75
2024/03/11 14:33:06;;;;;;;17.80;10.55;;;;;;;;;;5071650;28;20045;-75
2024/03/11 14:35:35;;;;;;;17.58;9.95;;;;;;;;;;5073512;28;20559;-76
2024/03/11 14:38:03;;;;;;;21.50;12.10;;;;;;;;;;5074172;28;20044;-75
2024/03/11 14:40:31;;;;;;;20.55;10.05;;;;;;;;;;5055694;28;20048;-75
2024/03/11 14:43:00;;;;;;;19.15;10.63;;;;;;;;;;5073525;28;20036;-76
2024/03/11 14:45:31;;;;;;;17.98;10.68;;;;;;;;;;5073174;28;20040;-76
2024/03/11 14:48:01;;;;;;;25.33;10.23;;;;;;;;;;5073496;28;20037;-75